createdAt,value
2023-01-20T00:00:22.739Z,1.44
2023-01-20T00:03:15.815Z,1.43
2023-01-20T00:05:58.189Z,1.43
2023-01-20T00:08:30.843Z,1.42
2023-01-20T00:11:09.194Z,1.41
2023-01-20T00:13:42.427Z,1.35
2023-01-20T00:16:19.544Z,1.26
2023-01-20T00:18:58.067Z,1.23
2023-01-20T00:21:36.973Z,1.22
2023-01-20T00:24:14.860Z,1.21
2023-01-20T00:26:50.485Z,1.18
2023-01-20T00:29:26.898Z,1.19
2023-01-20T00:31:59.507Z,1.18
2023-01-20T00:34:32.166Z,1.15
2023-01-20T00:37:07.980Z,1.13
2023-01-20T00:39:40.515Z,1.11
2023-01-20T00:42:14.889Z,1.08
2023-01-20T00:44:51.387Z,1.04
2023-01-20T00:47:26.890Z,1.00
2023-01-20T00:49:59.245Z,0.96
2023-01-20T00:52:31.738Z,0.92
2023-01-20T00:55:04.843Z,0.87
2023-01-20T00:57:37.215Z,0.82
2023-01-20T01:00:12.041Z,0.77
2023-01-20T01:02:44.495Z,0.71
2023-01-20T01:05:17.786Z,0.66
2023-01-20T01:07:52.763Z,0.56
2023-01-20T01:10:27.477Z,0.45
2023-01-20T01:13:05.365Z,0.39
2023-01-20T01:15:38.029Z,0.35
2023-01-20T01:18:10.359Z,0.28
2023-01-20T01:20:44.859Z,0.25
2023-01-20T01:23:17.306Z,0.20
2023-01-20T01:25:49.686Z,0.10
2023-01-20T01:28:22.188Z,0.02
2023-01-20T01:30:54.790Z,-0.04
2023-01-20T01:33:27.293Z,-0.08
2023-01-20T01:36:01.066Z,-0.11
2023-01-20T01:38:33.444Z,-0.15
2023-01-20T01:41:05.918Z,-0.19
2023-01-20T01:43:40.620Z,-0.20
2023-01-20T01:46:13.405Z,-0.22
2023-01-20T01:48:47.253Z,-0.23
2023-01-20T01:51:23.922Z,-0.25
2023-01-20T01:54:01.750Z,-0.30
2023-01-20T01:56:35.192Z,-0.35
2023-01-20T01:59:08.120Z,-0.37
2023-01-20T02:01:44.592Z,-0.48
2023-01-20T02:04:21.986Z,-0.61
2023-01-20T02:06:57.759Z,-0.67
2023-01-20T02:09:31.931Z,-0.72
2023-01-20T02:12:09.703Z,-0.79
2023-01-20T02:14:46.057Z,-0.81
2023-01-20T02:17:26.883Z,-0.82
2023-01-20T02:20:27.735Z,-0.81
2023-01-20T02:23:08.780Z,-0.81
2023-01-20T02:26:14.285Z,-0.84
2023-01-20T02:29:18.119Z,-0.92
2023-01-20T02:32:14.975Z,-0.96
2023-01-20T02:34:56.006Z,-0.97
2023-01-20T02:37:40.137Z,-0.97
2023-01-20T02:40:31.298Z,-1.03
2023-01-20T02:43:13.759Z,-1.07
2023-01-20T02:45:52.213Z,-1.09
2023-01-20T02:48:29.881Z,-1.11
2023-01-20T02:51:08.444Z,-1.12
2023-01-20T02:53:47.805Z,-1.12
2023-01-20T02:56:26.969Z,-1.11
2023-01-20T02:59:03.719Z,-1.10
2023-01-20T03:01:41.423Z,-1.10
2023-01-20T03:04:19.542Z,-1.09
2023-01-20T03:06:56.211Z,-1.09
2023-01-20T03:09:37.064Z,-1.12
2023-01-20T03:12:16.329Z,-1.17
2023-01-20T03:14:52.081Z,-1.27
2023-01-20T03:17:26.081Z,-1.35
2023-01-20T03:19:58.703Z,-1.43
2023-01-20T03:22:32.062Z,-1.53
2023-01-20T03:25:08.685Z,-1.59
2023-01-20T03:27:42.251Z,-1.60
2023-01-20T03:30:17.597Z,-1.59
2023-01-20T03:32:52.586Z,-1.61
2023-01-20T03:35:25.747Z,-1.59
2023-01-20T03:37:58.651Z,-1.60
2023-01-20T03:40:35.373Z,-1.59
2023-01-20T03:43:13.718Z,-1.60
2023-01-20T03:45:55.882Z,-1.59
2023-01-20T03:48:35.424Z,-1.59
2023-01-20T03:51:15.247Z,-1.56
2023-01-20T03:53:54.697Z,-1.54
2023-01-20T03:56:33.238Z,-1.52
2023-01-20T03:59:09.265Z,-1.51
2023-01-20T04:01:45.779Z,-1.50
2023-01-20T04:04:20.982Z,-1.53
2023-01-20T04:06:54.256Z,-1.58
2023-01-20T04:09:32.227Z,-1.55
2023-01-20T04:12:04.851Z,-1.55
2023-01-20T04:14:39.482Z,-1.57
2023-01-20T04:17:12.587Z,-1.60
2023-01-20T04:19:45.151Z,-1.63
2023-01-20T04:22:26.835Z,-1.66
2023-01-20T04:25:03.000Z,-1.72
2023-01-20T04:27:35.982Z,-1.83
2023-01-20T04:30:10.216Z,-1.89
2023-01-20T04:32:42.769Z,-1.92
2023-01-20T04:35:17.609Z,-1.96
2023-01-20T04:37:50.392Z,-1.98
2023-01-20T04:40:22.930Z,-1.99
2023-01-20T04:42:55.474Z,-1.99
2023-01-20T04:45:28.160Z,-2.00
2023-01-20T04:48:00.634Z,-2.07
2023-01-20T04:50:41.099Z,-2.15
2023-01-20T04:53:17.098Z,-2.20
2023-01-20T04:55:49.865Z,-2.22
2023-01-20T04:58:22.251Z,-2.23
2023-01-20T05:00:54.721Z,-2.23
2023-01-20T05:03:27.095Z,-2.24
2023-01-20T05:05:59.572Z,-2.30
2023-01-20T05:08:32.276Z,-2.38
2023-01-20T05:11:04.906Z,-2.41
2023-01-20T05:13:39.463Z,-2.43
2023-01-20T05:16:12.870Z,-2.45
2023-01-20T05:18:45.548Z,-2.50
2023-01-20T05:21:18.135Z,-2.56
2023-01-20T05:23:50.564Z,-2.61
2023-01-20T05:26:23.303Z,-2.61
2023-01-20T05:28:55.898Z,-2.57
2023-01-20T05:31:28.241Z,-2.53
2023-01-20T05:34:00.843Z,-2.51
2023-01-20T05:36:33.217Z,-2.48
2023-01-20T05:39:05.640Z,-2.47
2023-01-20T05:41:38.108Z,-2.52
2023-01-20T05:44:10.510Z,-2.54
2023-01-20T05:46:43.238Z,-2.52
2023-01-20T05:49:15.678Z,-2.49
2023-01-20T05:51:47.881Z,-2.47
2023-01-20T05:54:20.322Z,-2.44
2023-01-20T05:56:53.094Z,-2.38
2023-01-20T05:59:25.949Z,-2.35
2023-01-20T06:01:58.930Z,-2.32
2023-01-20T06:04:31.434Z,-2.29
2023-01-20T06:07:04.020Z,-2.23
2023-01-20T06:09:36.298Z,-2.17
2023-01-20T06:12:09.091Z,-2.12
2023-01-20T06:14:41.455Z,-2.07
2023-01-20T06:17:13.759Z,-2.04
2023-01-20T06:19:46.264Z,-2.02
2023-01-20T06:22:19.791Z,-1.97
2023-01-20T06:24:52.201Z,-1.95
2023-01-20T06:27:24.471Z,-1.92
2023-01-20T06:29:56.796Z,-1.89
2023-01-20T06:32:29.041Z,-1.86
2023-01-20T06:35:01.279Z,-1.82
2023-01-20T06:37:33.747Z,-1.77
2023-01-20T06:40:06.759Z,-1.74
2023-01-20T06:42:38.974Z,-1.73
2023-01-20T06:45:13.109Z,-1.72
2023-01-20T06:47:49.177Z,-1.71
2023-01-20T06:50:22.150Z,-1.71
2023-01-20T06:52:56.930Z,-1.69
2023-01-20T06:55:29.458Z,-1.68
2023-01-20T06:58:03.953Z,-1.72
2023-01-20T07:00:37.692Z,-1.84
2023-01-20T07:03:13.964Z,-1.92
2023-01-20T07:05:53.441Z,-1.89
2023-01-20T07:08:25.892Z,-1.83
2023-01-20T07:10:58.333Z,-1.85
2023-01-20T07:13:30.553Z,-1.89
2023-01-20T07:16:02.942Z,-1.89
2023-01-20T07:18:35.621Z,-1.88
2023-01-20T07:21:08.630Z,-1.88
2023-01-20T07:23:41.020Z,-1.88
2023-01-20T07:26:15.887Z,-1.85
2023-01-20T07:28:48.997Z,-1.81
2023-01-20T07:31:23.006Z,-1.77
2023-01-20T07:33:57.453Z,-1.72
2023-01-20T07:36:30.882Z,-1.74
2023-01-20T07:39:03.161Z,-1.73
2023-01-20T07:41:35.905Z,-1.72
2023-01-20T07:44:08.373Z,-1.66
2023-01-20T07:46:43.339Z,-1.58
2023-01-20T07:49:16.840Z,-1.55
2023-01-20T07:51:50.362Z,-1.48
2023-01-20T07:54:23.304Z,-1.40
2023-01-20T07:56:55.806Z,-1.35
2023-01-20T07:59:29.191Z,-1.29
2023-01-20T08:02:03.941Z,-1.24
2023-01-20T08:04:37.451Z,-1.20
2023-01-20T08:07:09.936Z,-1.16
2023-01-20T08:09:44.104Z,-1.11
2023-01-20T08:12:16.602Z,-1.07
2023-01-20T08:14:48.976Z,-1.05
2023-01-20T08:17:21.298Z,-1.01
2023-01-20T08:19:53.580Z,-1.02
2023-01-20T08:22:26.627Z,-1.06
2023-01-20T08:24:58.896Z,-1.08
2023-01-20T08:27:31.250Z,-1.07
2023-01-20T08:30:03.516Z,-1.04
2023-01-20T08:32:36.331Z,-1.01
2023-01-20T08:35:09.407Z,-1.00
2023-01-20T08:37:41.917Z,-1.01
2023-01-20T08:40:15.138Z,-1.04
2023-01-20T08:46:07.149Z,-0.91
2023-01-20T08:48:41.306Z,-0.93
2023-01-20T08:51:17.033Z,-0.95
2023-01-20T08:53:52.537Z,-0.93
2023-01-20T08:56:25.120Z,-0.88
2023-01-20T08:58:58.756Z,-0.84
2023-01-20T09:01:36.038Z,-0.78
2023-01-20T09:04:09.943Z,-0.73
2023-01-20T09:06:48.717Z,-0.68
2023-01-20T09:09:22.896Z,-0.63
2023-01-20T09:11:55.299Z,-0.61
2023-01-20T09:14:28.371Z,-0.56
2023-01-20T09:17:01.814Z,-0.51
2023-01-20T09:19:34.163Z,-0.46
2023-01-20T09:22:08.838Z,-0.41
2023-01-20T09:24:41.511Z,-0.39
2023-01-20T09:27:13.819Z,-0.34
2023-01-20T09:29:48.355Z,-0.27
2023-01-20T09:32:20.965Z,-0.22
2023-01-20T09:34:53.401Z,-0.17
2023-01-20T09:37:44.198Z,-0.11
2023-01-20T09:40:47.847Z,-0.06
2023-01-20T09:43:58.699Z,-0.00
2023-01-20T09:47:10.550Z,0.04
2023-01-20T09:50:13.181Z,0.09
2023-01-20T09:53:04.952Z,0.16
2023-01-20T09:55:45.187Z,0.23
2023-01-20T09:58:27.004Z,0.27
2023-01-20T10:01:09.881Z,0.32
2023-01-20T10:03:47.849Z,0.38
2023-01-20T10:06:26.654Z,0.46
2023-01-20T10:09:06.201Z,0.67
2023-01-20T10:11:39.856Z,0.96
2023-01-20T10:14:21.971Z,1.23
2023-01-20T10:17:01.325Z,1.43
2023-01-20T10:19:42.460Z,1.58
2023-01-20T10:22:19.169Z,1.93
2023-01-20T10:24:58.321Z,2.19
2023-01-20T10:27:34.544Z,2.44
2023-01-20T10:30:13.612Z,2.46
2023-01-20T10:32:53.973Z,2.56
2023-01-20T10:35:30.450Z,2.71
2023-01-20T10:38:04.547Z,2.86
2023-01-20T10:40:42.431Z,3.07
2023-01-20T10:43:17.276Z,3.59
2023-01-20T10:46:12.470Z,3.94
2023-01-20T10:49:01.306Z,4.02
2023-01-20T10:51:39.933Z,4.08
2023-01-20T10:54:30.318Z,4.22
2023-01-20T10:57:07.298Z,4.11
2023-01-20T10:59:43.727Z,3.84
2023-01-20T11:02:21.044Z,3.58
2023-01-20T11:04:58.918Z,3.31
2023-01-20T11:07:33.743Z,3.18
2023-01-20T11:10:17.912Z,3.19
2023-01-20T11:12:55.038Z,3.21
2023-01-20T11:15:30.573Z,3.15
2023-01-20T11:18:26.551Z,3.04
2023-01-20T11:21:02.264Z,2.85
2023-01-20T11:23:41.655Z,2.76
2023-01-20T11:26:25.629Z,2.63
2023-01-20T11:29:05.376Z,2.46
2023-01-20T11:31:42.585Z,2.39
2023-01-20T11:34:25.553Z,2.38
2023-01-20T11:37:18.105Z,2.36
2023-01-20T11:40:06.083Z,2.32
2023-01-20T11:42:47.461Z,2.25
2023-01-20T11:45:29.320Z,2.21
2023-01-20T11:48:16.860Z,2.16
2023-01-20T11:50:56.326Z,2.16
2023-01-20T11:53:31.793Z,2.12
2023-01-20T11:56:16.570Z,2.08
2023-01-20T11:58:58.413Z,2.01
2023-01-20T12:01:50.633Z,1.93
2023-01-20T12:04:32.457Z,1.86
2023-01-20T12:07:08.527Z,1.81
2023-01-20T12:09:45.251Z,1.78
2023-01-20T12:12:34.030Z,1.71
2023-01-20T12:15:12.355Z,1.66
2023-01-20T12:17:53.716Z,1.65
2023-01-20T12:20:45.624Z,1.64
2023-01-20T12:23:34.071Z,1.68
2023-01-20T12:26:07.992Z,1.72
2023-01-20T12:28:49.044Z,1.72
2023-01-20T12:31:25.453Z,1.69
2023-01-20T12:34:02.361Z,1.68
2023-01-20T12:37:06.762Z,1.68
2023-01-20T12:40:08.730Z,1.61
2023-01-20T12:43:07.993Z,1.52
2023-01-20T12:46:06.296Z,1.47
2023-01-20T12:48:53.980Z,1.43
2023-01-20T12:51:39.752Z,1.42
2023-01-20T12:54:47.715Z,1.40
2023-01-20T12:57:34.329Z,1.38
2023-01-20T13:00:44.122Z,1.36
2023-01-20T13:03:41.887Z,1.36
2023-01-20T13:06:39.737Z,1.31
2023-01-20T13:09:28.275Z,1.32
2023-01-20T13:12:15.172Z,1.31
2023-01-20T13:14:50.298Z,1.27
2023-01-20T13:17:30.561Z,1.27
2023-01-20T13:20:06.133Z,1.25
2023-01-20T13:22:39.505Z,1.21
2023-01-20T13:25:20.171Z,1.21
2023-01-20T13:27:54.699Z,1.19
2023-01-20T13:30:48.445Z,1.15
2023-01-20T13:33:33.827Z,1.11
2023-01-20T13:36:18.427Z,1.11
2023-01-20T13:38:52.716Z,1.14
2023-01-20T13:41:52.353Z,1.11
2023-01-20T13:44:40.267Z,1.06
2023-01-20T13:47:53.128Z,1.02
2023-01-20T13:50:28.331Z,1.01
2023-01-20T13:53:15.360Z,0.97
2023-01-20T13:56:10.933Z,0.92
2023-01-20T13:58:43.301Z,0.92
2023-01-20T14:01:15.823Z,0.92
2023-01-20T14:04:04.915Z,0.91
2023-01-20T14:06:46.038Z,0.89
2023-01-20T14:09:22.845Z,0.90
2023-01-20T14:11:57.323Z,0.91
2023-01-20T14:14:29.733Z,0.89
2023-01-20T14:17:05.642Z,0.88
2023-01-20T14:19:38.635Z,0.90
2023-01-20T14:22:25.041Z,0.89
2023-01-20T14:25:00.897Z,0.88
2023-01-20T14:27:37.574Z,0.87
2023-01-20T14:30:21.657Z,0.87
2023-01-20T14:32:56.796Z,0.88
2023-01-20T14:35:33.546Z,0.89
2023-01-20T14:38:06.150Z,0.90
2023-01-20T14:40:40.376Z,0.91
2023-01-20T14:43:19.767Z,0.90
2023-01-20T14:45:53.547Z,0.91
2023-01-20T14:48:34.776Z,0.92
2023-01-20T14:51:07.593Z,0.92
2023-01-20T14:53:39.974Z,0.92
2023-01-20T14:56:20.881Z,0.92
2023-01-20T14:58:58.335Z,0.87
2023-01-20T15:01:30.897Z,0.82
2023-01-20T15:04:06.153Z,0.80
2023-01-20T15:06:38.774Z,0.78
2023-01-20T15:09:35.377Z,0.77
2023-01-20T15:12:36.356Z,0.78
2023-01-20T15:15:20.739Z,0.78
2023-01-20T15:18:18.035Z,0.77
2023-01-20T15:21:03.831Z,0.78
2023-01-20T15:23:45.955Z,0.80
2023-01-20T15:26:28.837Z,0.81
2023-01-20T15:29:01.477Z,0.80
2023-01-20T15:31:35.122Z,0.78
2023-01-20T15:34:07.487Z,0.79
2023-01-20T15:36:40.314Z,0.80
2023-01-20T15:39:14.570Z,0.80
2023-01-20T15:41:48.899Z,0.78
2023-01-20T15:44:21.339Z,0.77
2023-01-20T15:46:57.297Z,0.77
2023-01-20T15:49:30.475Z,0.75
2023-01-20T15:52:02.752Z,0.74
2023-01-20T15:54:35.614Z,0.72
2023-01-20T15:57:13.439Z,0.69
2023-01-20T15:59:49.806Z,0.68
2023-01-20T16:02:24.521Z,0.65
2023-01-20T16:04:57.040Z,0.62
2023-01-20T16:07:30.532Z,0.61
2023-01-20T16:10:02.948Z,0.62
2023-01-20T16:12:35.276Z,0.64
2023-01-20T16:15:10.817Z,0.64
2023-01-20T16:17:43.967Z,0.61
2023-01-20T16:20:22.923Z,0.61
2023-01-20T16:22:56.874Z,0.61
2023-01-20T16:25:30.337Z,0.62
2023-01-20T16:28:04.406Z,0.62
2023-01-20T16:30:36.702Z,0.62
2023-01-20T16:33:18.725Z,0.61
2023-01-20T16:35:54.070Z,0.57
2023-01-20T16:38:27.330Z,0.57
2023-01-20T16:41:04.703Z,0.58
2023-01-20T16:43:41.005Z,0.57
2023-01-20T16:46:16.412Z,0.55
2023-01-20T16:48:49.221Z,0.54
2023-01-20T16:51:27.323Z,0.58
2023-01-20T16:54:00.834Z,0.55
2023-01-20T16:56:35.311Z,0.53
2023-01-20T16:59:08.214Z,0.55
2023-01-20T17:01:41.188Z,0.60
2023-01-20T17:04:13.492Z,0.62
2023-01-20T17:06:45.885Z,0.63
2023-01-20T17:09:18.337Z,0.63
2023-01-20T17:11:51.254Z,0.64
2023-01-20T17:14:23.562Z,0.63
2023-01-20T17:16:59.926Z,0.61
2023-01-20T17:19:32.478Z,0.59
2023-01-20T17:22:04.891Z,0.60
2023-01-20T17:24:39.348Z,0.59
2023-01-20T17:27:11.710Z,0.54
2023-01-20T17:29:44.029Z,0.51
2023-01-20T17:32:18.309Z,0.49
2023-01-20T17:34:51.784Z,0.49
2023-01-20T17:37:24.159Z,0.47
2023-01-20T17:39:56.637Z,0.49
2023-01-20T17:42:28.981Z,0.48
2023-01-20T17:45:03.546Z,0.47
2023-01-20T17:47:35.949Z,0.47
2023-01-20T17:50:09.943Z,0.50
2023-01-20T17:52:42.401Z,0.52
2023-01-20T17:55:15.899Z,0.51
2023-01-20T17:57:48.322Z,0.52
2023-01-20T18:00:22.314Z,0.51
2023-01-20T18:02:58.212Z,0.46
2023-01-20T18:05:31.553Z,0.45
2023-01-20T18:08:04.290Z,0.41
2023-01-20T18:10:39.640Z,0.39
2023-01-20T18:13:11.898Z,0.39
2023-01-20T18:15:44.362Z,0.38
2023-01-20T18:18:16.854Z,0.36
2023-01-20T18:20:49.590Z,0.35
2023-01-20T18:23:21.889Z,0.34
2023-01-20T18:25:58.653Z,0.32
2023-01-20T18:28:37.019Z,0.29
2023-01-20T18:31:13.851Z,0.26
2023-01-20T18:33:48.212Z,0.28
2023-01-20T18:36:23.685Z,0.26
2023-01-20T18:38:59.051Z,0.27
2023-01-20T18:41:36.405Z,0.29
2023-01-20T18:44:10.125Z,0.28
2023-01-20T18:46:42.891Z,0.26
2023-01-20T18:49:16.175Z,0.24
2023-01-20T18:51:48.527Z,0.22
2023-01-20T18:54:22.179Z,0.20
2023-01-20T18:56:54.582Z,0.17
2023-01-20T18:59:27.082Z,0.15
2023-01-20T19:01:59.591Z,0.13
2023-01-20T19:04:33.648Z,0.11
2023-01-20T19:07:06.098Z,0.09
2023-01-20T19:09:38.368Z,0.09
2023-01-20T19:12:14.066Z,0.11
2023-01-20T19:14:46.701Z,0.10
2023-01-20T19:17:18.950Z,0.10
2023-01-20T19:19:51.324Z,0.09
2023-01-20T19:22:23.607Z,0.08
2023-01-20T19:24:56.004Z,0.07
2023-01-20T19:27:28.415Z,0.04
2023-01-20T19:30:01.146Z,0.03
2023-01-20T19:32:33.528Z,0.03
2023-01-20T19:35:06.227Z,0.05
2023-01-20T19:37:38.836Z,0.01
2023-01-20T19:40:13.447Z,0.02
2023-01-20T19:42:48.904Z,0.03
2023-01-20T19:45:26.952Z,0.03
2023-01-20T19:48:04.546Z,0.02
2023-01-20T19:50:37.566Z,-0.01
2023-01-20T19:53:10.358Z,-0.02
2023-01-20T19:55:42.794Z,-0.05
2023-01-20T19:58:15.963Z,-0.07
2023-01-20T20:00:48.274Z,-0.06
2023-01-20T20:03:23.378Z,-0.06
2023-01-20T20:05:57.419Z,-0.09
2023-01-20T20:08:29.817Z,-0.13
2023-01-20T20:11:02.839Z,-0.16
2023-01-20T20:13:38.355Z,-0.18
2023-01-20T20:16:12.657Z,-0.17
2023-01-20T20:18:44.973Z,-0.18
2023-01-20T20:21:17.381Z,-0.21
2023-01-20T20:23:52.905Z,-0.23
2023-01-20T20:26:29.462Z,-0.24
2023-01-20T20:29:04.289Z,-0.26
2023-01-20T20:31:40.404Z,-0.27
2023-01-20T20:34:16.073Z,-0.26
2023-01-20T20:36:50.248Z,-0.25
2023-01-20T20:39:22.712Z,-0.25
2023-01-20T20:41:56.527Z,-0.24
2023-01-20T20:44:29.170Z,-0.26
2023-01-20T20:47:01.641Z,-0.27
2023-01-20T20:49:33.975Z,-0.24
2023-01-20T20:52:08.792Z,-0.26
2023-01-20T20:54:44.150Z,-0.27
2023-01-20T20:57:16.653Z,-0.26
2023-01-20T20:59:59.197Z,-0.25
2023-01-20T21:02:35.021Z,-0.25
2023-01-20T21:05:09.293Z,-0.25
2023-01-20T21:07:41.924Z,-0.26
2023-01-20T21:10:17.073Z,-0.26
2023-01-20T21:12:50.605Z,-0.25
2023-01-20T21:15:23.293Z,-0.24
2023-01-20T21:17:55.727Z,-0.24
2023-01-20T21:20:32.813Z,-0.22
2023-01-20T21:23:05.241Z,-0.21
2023-01-20T21:25:38.782Z,-0.20
2023-01-20T21:28:16.626Z,-0.18
2023-01-20T21:31:02.561Z,-0.17
2023-01-20T21:33:38.256Z,-0.19
2023-01-20T21:36:13.230Z,-0.21
2023-01-20T21:38:46.709Z,-0.20
2023-01-20T21:41:24.030Z,-0.19
2023-01-20T21:44:13.897Z,-0.23
2023-01-20T21:46:46.547Z,-0.23
2023-01-20T21:49:36.720Z,-0.21
2023-01-20T21:52:28.227Z,-0.20
2023-01-20T21:55:00.832Z,-0.23
2023-01-20T21:57:33.769Z,-0.25
2023-01-20T22:00:09.197Z,-0.25
2023-01-20T22:02:45.831Z,-0.25
2023-01-20T22:05:20.743Z,-0.26
2023-01-20T22:07:52.984Z,-0.25
2023-01-20T22:10:29.485Z,-0.23
2023-01-20T22:13:03.162Z,-0.20
2023-01-20T22:15:40.286Z,-0.17
2023-01-20T22:18:12.699Z,-0.15
2023-01-20T22:20:45.522Z,-0.11
2023-01-20T22:23:17.923Z,-0.08
2023-01-20T22:25:53.578Z,-0.07
2023-01-20T22:28:26.284Z,-0.03
2023-01-20T22:31:05.352Z,0.02
2023-01-20T22:33:39.958Z,0.07
2023-01-20T22:36:12.817Z,0.09
2023-01-20T22:38:46.045Z,0.12
2023-01-20T22:41:19.163Z,0.16
2023-01-20T22:43:53.407Z,0.20
2023-01-20T22:46:28.055Z,0.18
2023-01-20T22:49:01.086Z,0.16
2023-01-20T22:51:33.798Z,0.20
2023-01-20T22:54:07.233Z,0.25
2023-01-20T22:56:40.459Z,0.28
2023-01-20T22:59:15.162Z,0.27
2023-01-20T23:01:47.583Z,0.25
2023-01-20T23:04:20.033Z,0.27
2023-01-20T23:06:52.397Z,0.29
2023-01-20T23:09:24.773Z,0.32
2023-01-20T23:11:57.525Z,0.34
2023-01-20T23:14:44.325Z,0.30
2023-01-20T23:17:16.769Z,0.28
2023-01-20T23:19:49.133Z,0.25
2023-01-20T23:22:21.673Z,0.25
2023-01-20T23:24:53.908Z,0.25
2023-01-20T23:27:26.219Z,0.25
2023-01-20T23:29:58.900Z,0.26
2023-01-20T23:32:31.244Z,0.27
2023-01-20T23:35:03.849Z,0.26
2023-01-20T23:37:36.856Z,0.25
2023-01-20T23:40:11.944Z,0.21
2023-01-20T23:42:44.730Z,0.17
2023-01-20T23:45:17.676Z,0.17
2023-01-20T23:47:51.623Z,0.15
2023-01-20T23:50:26.321Z,0.13
2023-01-20T23:53:01.995Z,0.10
2023-01-20T23:55:34.530Z,0.11
2023-01-20T23:58:07.249Z,0.10
